Time;durP1;ratioP1;P1;durP2;ratioP2;P2;SDS_P1;SDS_P2;PMS_P1;PMS_P2;Temp;Humidity;BMP_temperature;BMP_pressure;BME280_temperature;BME280_humidity;BME280_pressure;Samples;Min_cycle;Max_cycle;Signal;HPM_P1;HPM_P2
2022/05/31 00:00:18;;;;;;;;;4.00;4.00;;;;;15.78;61.67;99982.84;5052978;28;45500;-69
2022/05/31 00:02:45;;;;;;;;;6.67;5.00;;;;;15.85;61.89;99994.25;5045646;28;45525;-72
2022/05/31 00:05:11;;;;;;;;;5.50;5.00;;;;;15.88;61.78;100002.16;5046765;28;45441;-71
2022/05/31 00:07:39;;;;;;;;;6.00;5.33;;;;;15.88;61.59;100003.03;5047738;28;45407;-68
2022/05/31 00:10:06;;;;;;;;;5.00;5.00;;;;;15.89;61.44;100006.53;5048026;28;45617;-68
2022/05/31 00:12:32;;;;;;;;;6.00;5.25;;;;;15.89;61.95;100007.41;5048371;28;46007;-71
2022/05/31 00:14:59;;;;;;;;;5.33;4.67;;;;;15.82;61.53;99995.13;5049313;28;45418;-71
2022/05/31 00:17:25;;;;;;;;;5.00;4.50;;;;;15.71;61.70;99986.31;5048434;28;45374;-68
2022/05/31 00:19:51;;;;;;;;;5.00;4.00;;;;;15.81;61.40;100009.16;5048798;28;45312;-71
2022/05/31 00:22:22;;;;;;;;;5.33;4.67;;;;;15.80;60.85;100001.28;5049330;28;45980;-70
2022/05/31 00:24:48;;;;;;;;;5.33;5.00;;;;;15.79;60.93;100000.38;5049395;28;45442;-70
2022/05/31 00:27:17;;;;;;;;;4.00;4.00;;;;;15.63;61.11;99970.50;5049149;28;45533;-71
2022/05/31 00:29:43;;;;;;;;;4.00;4.00;;;;;15.77;61.51;99993.38;5049885;28;45378;-72
2022/05/31 00:32:11;;;;;;;;;5.00;4.25;;;;;15.80;61.33;99996.88;5047964;28;46212;-71
2022/05/31 00:34:41;;;;;;;;;4.00;4.00;;;;;15.78;62.17;100005.69;5047275;28;45488;-70
2022/05/31 00:37:07;;;;;;;;;4.67;4.67;;;;;15.61;62.38;99987.19;5048782;28;45190;-71
2022/05/31 00:39:33;;;;;;;;;4.00;4.00;;;;;15.73;61.80;100007.41;5049017;28;45355;-71
2022/05/31 00:42:19;;;;;;;;;5.00;3.67;;;;;15.63;62.29;99996.84;5047001;28;45470;-70
2022/05/31 00:44:45;;;;;;;;;4.00;3.67;;;;;15.54;62.68;99996.84;5049219;28;45643;-68
2022/05/31 00:47:24;;;;;;;;;4.00;4.00;;;;;15.62;62.19;100007.38;5053942;28;45530;-71
2022/05/31 00:49:56;;;;;;;;;6.00;5.75;;;;;15.65;61.84;100013.50;5049528;28;45808;-71
2022/05/31 00:52:32;;;;;;;;;4.00;4.00;;;;;15.69;61.51;100010.00;5049225;28;45442;-71
2022/05/31 00:55:01;;;;;;;;;5.00;4.00;;;;;15.74;61.88;100006.53;5048753;28;45427;-70
2022/05/31 00:57:27;;;;;;;;;5.00;5.00;;;;;15.77;62.54;100001.28;5047535;28;45220;-70
2022/05/31 00:59:58;;;;;;;;;3.00;3.00;;;;;15.79;62.44;100004.78;5048097;28;45502;-68
2022/05/31 01:02:25;;;;;;;;;5.00;5.00;;;;;15.67;62.13;99977.53;5048846;28;45398;-70
2022/05/31 01:04:55;;;;;;;;;5.00;4.00;;;;;15.80;61.57;100001.28;5048226;28;45503;-70
2022/05/31 01:07:21;;;;;;;;;4.00;3.67;;;;;15.82;61.38;99999.53;5047070;28;45462;-71
2022/05/31 01:09:46;;;;;;;;;4.33;4.00;;;;;15.69;61.76;99978.41;5048581;28;45320;-70
2022/05/31 01:12:14;;;;;;;;;3.00;3.00;;;;;15.82;61.49;100002.16;5047945;28;45346;-72
2022/05/31 01:14:41;;;;;;;;;5.00;4.00;;;;;15.81;61.94;99998.63;5046437;28;45336;-71
2022/05/31 01:17:14;;;;;;;;;4.00;3.00;;;;;15.80;61.45;100004.78;5047592;28;45229;-70
2022/05/31 01:20:00;;;;;;;;;4.00;4.00;;;;;15.74;61.20;99998.63;5048859;28;45499;-71
2022/05/31 01:22:41;;;;;;;;;4.00;4.00;;;;;15.63;61.21;99994.19;5046727;28;46066;-69
2022/05/31 01:25:25;;;;;;;;;5.00;5.00;;;;;15.76;61.70;100002.16;5050639;28;45442;-71
2022/05/31 01:28:26;;;;;;;;;4.67;4.00;;;;;15.70;60.83;100017.03;5049198;28;45823;-68
2022/05/31 01:31:01;;;;;;;;;4.33;4.33;;;;;15.64;61.94;100010.91;5046235;28;45452;-72
2022/05/31 01:33:50;;;;;;;;;4.67;4.00;;;;;15.41;61.90;99981.91;5047706;28;46212;-71
2022/05/31 01:36:22;;;;;;;;;4.33;4.33;;;;;15.49;61.61;100006.47;5048646;28;45784;-71
2022/05/31 01:39:14;;;;;;;;;5.00;4.67;;;;;15.40;62.89;100001.19;5047552;28;45469;-73
2022/05/31 01:41:56;;;;;;;;;3.00;3.00;;;;;15.43;63.13;100006.47;5046212;28;45410;-72
2022/05/31 01:44:26;;;;;;;;;4.00;4.00;;;;;15.47;62.97;100010.88;5046164;28;45331;-73
2022/05/31 01:46:56;;;;;;;;;6.00;5.00;;;;;15.46;62.25;100011.75;5047164;28;45608;-73
2022/05/31 01:49:23;;;;;;;;;6.00;5.00;;;;;15.39;62.80;99991.56;5048471;28;45801;-73
2022/05/31 01:51:49;;;;;;;;;4.00;4.00;;;;;15.48;63.35;100008.25;5047075;28;45443;-73
2022/05/31 01:54:17;;;;;;;;;5.00;4.00;;;;;15.45;63.14;99994.19;5046238;28;46193;-75
2022/05/31 01:56:48;;;;;;;;;4.00;4.00;;;;;15.51;62.75;100000.34;5048027;28;45556;-70
2022/05/31 01:59:16;;;;;;;;;5.00;4.25;;;;;15.48;62.69;100010.00;5047535;28;45525;-73
2022/05/31 02:01:42;;;;;;;;;5.25;5.00;;;;;15.42;63.61;100002.06;5046038;28;45561;-70
2022/05/31 02:04:09;;;;;;;;;5.00;4.00;;;;;15.27;63.76;99980.13;5047158;28;46217;-73
2022/05/31 02:06:39;;;;;;;;;4.00;4.00;;;;;15.43;63.84;100015.25;5047565;28;45437;-70
2022/05/31 02:09:07;;;;;;;;;4.00;3.33;;;;;15.41;63.92;100014.38;5044883;28;45505;-73
2022/05/31 02:11:34;;;;;;;;;3.00;3.00;;;;;15.40;63.72;100009.09;5045464;28;45585;-74
2022/05/31 02:14:01;;;;;;;;;5.00;4.00;;;;;15.39;63.99;100004.72;5047492;28;46142;-73
2022/05/31 02:16:27;;;;;;;;;3.00;3.00;;;;;15.31;63.55;100005.56;5046112;28;45433;-70
2022/05/31 02:21:38;;;;;;;;;3.00;3.00;;;;;15.24;64.37;100016.97;5047808;28;45373;-73
2022/05/31 02:24:14;;;;;;;;;3.67;3.67;;;;;15.18;64.26;100013.44;5051699;28;46176;-70
2022/05/31 02:26:41;;;;;;;;;5.00;4.50;;;;;15.01;64.12;99987.09;5058371;28;45251;-70
2022/05/31 02:29:10;;;;;;;;;4.00;4.00;;;;;15.07;63.41;99997.63;5057312;28;45417;-70
2022/05/31 02:31:35;;;;;;;;;4.50;4.00;;;;;15.05;63.41;99997.63;5058332;28;45416;-70
2022/05/31 02:34:01;;;;;;;;;4.00;4.00;;;;;14.89;64.10;99975.66;5057840;28;45501;-74
2022/05/31 02:36:27;;;;;;;;;6.25;5.00;;;;;15.08;64.83;100004.63;5058177;28;45870;-70
2022/05/31 02:38:53;;;;;;;;;4.75;4.75;;;;;15.06;65.05;100001.13;5058371;28;45544;-70
2022/05/31 02:41:20;;;;;;;;;4.00;4.00;;;;;14.97;64.73;99988.81;5058302;28;45413;-70
2022/05/31 02:43:46;;;;;;;;;5.00;5.00;;;;;14.93;65.00;99973.91;5057559;28;46135;-74
2022/05/31 02:46:12;;;;;;;;;5.00;4.00;;;;;15.01;65.31;99998.47;5057845;28;45295;-74
2022/05/31 02:48:38;;;;;;;;;4.50;4.25;;;;;14.71;65.28;99954.56;5058241;28;45335;-70
2022/05/31 02:51:03;;;;;;;;;4.67;4.67;;;;;14.97;65.26;99994.09;5058162;28;45400;-70
2022/05/31 02:53:29;;;;;;;;;4.00;4.00;;;;;14.37;65.56;99908.84;5057861;28;45845;-70
2022/05/31 02:55:56;;;;;;;;;4.00;4.00;;;;;14.85;65.32;99994.91;5058132;28;45598;-74
2022/05/31 02:58:22;;;;;;;;;4.00;4.00;;;;;14.61;65.41;99969.41;5057812;28;45409;-69
2022/05/31 03:00:47;;;;;;;;;5.00;5.00;;;;;14.68;65.77;99993.97;5057908;28;45406;-70
2022/05/31 03:03:13;;;;;;;;;3.00;3.00;;;;;14.47;65.74;99966.69;5057604;28;45538;-75
2022/05/31 03:05:39;;;;;;;;;4.00;4.00;;;;;14.52;65.26;99993.88;5057828;28;45325;-74
2022/05/31 03:08:05;;;;;;;;;4.75;4.25;;;;;14.45;65.24;99978.94;5057857;28;45414;-72
2022/05/31 03:10:34;;;;;;;;;3.75;3.75;;;;;14.45;65.25;99988.59;5058072;28;45334;-70
2022/05/31 03:13:01;;;;;;;;;4.75;4.25;;;;;14.42;65.65;99989.44;5057325;28;46248;-70
2022/05/31 03:15:29;;;;;;;;;5.00;4.00;;;;;14.42;65.66;99996.44;5057581;28;45378;-74
2022/05/31 03:18:09;;;;;;;;;4.00;4.00;;;;;14.31;66.07;99984.13;5057888;28;45937;-74
2022/05/31 03:20:46;;;;;;;;;3.25;3.25;;;;;14.17;66.07;99969.16;5057711;28;45449;-70
2022/05/31 03:23:21;;;;;;;;;5.25;4.50;;;;;14.09;65.91;99958.63;5056931;28;46255;-74
2022/05/31 03:25:49;;;;;;;;;3.00;3.00;;;;;14.25;66.10;99999.00;5057173;28;45477;-69
2022/05/31 03:28:16;;;;;;;;;4.00;4.00;;;;;14.18;66.53;99999.81;5056983;28;45516;-72
2022/05/31 03:30:42;;;;;;;;;5.50;5.00;;;;;14.05;66.85;100002.34;5057435;28;45475;-75
2022/05/31 03:33:09;;;;;;;;;4.00;4.00;;;;;13.80;67.49;99984.66;5055689;28;45575;-70
2022/05/31 03:35:36;;;;;;;;;3.00;3.00;;;;;13.79;67.72;99990.78;5057330;28;45434;-70
2022/05/31 03:38:02;;;;;;;;;7.25;6.00;;;;;13.86;67.84;100006.56;5057383;28;45283;-71
2022/05/31 03:43:12;;;;;;;;;4.00;4.00;;;;;13.75;68.08;100000.38;5057088;28;45366;-70
2022/05/31 03:45:39;;;;;;;;;5.00;5.00;;;;;13.61;67.99;99987.13;5057116;28;45382;-73
2022/05/31 03:48:06;;;;;;;;;5.00;4.50;;;;;13.71;67.88;100004.72;5057420;28;45483;-70
2022/05/31 03:50:33;;;;;;;;;4.00;4.00;;;;;13.60;67.50;99997.63;5057259;28;45323;-70
2022/05/31 03:52:58;;;;;;;;;4.00;4.00;;;;;13.65;67.91;100006.41;5057174;28;45978;-71
2022/05/31 03:55:24;;;;;;;;;8.25;7.00;;;;;13.61;68.10;100013.38;5056813;28;45505;-74
2022/05/31 03:57:51;;;;;;;;;4.00;4.00;;;;;13.59;68.01;100015.13;5057029;28;45497;-74
2022/05/31 04:00:18;;;;;;;;;4.00;4.00;;;;;13.57;68.03;100008.97;5055883;28;45410;-70
2022/05/31 04:02:44;;;;;;;;;4.25;3.50;;;;;13.53;67.99;100013.31;5056538;28;46109;-69
2022/05/31 04:05:10;;;;;;;;;4.50;4.00;;;;;13.46;68.10;100021.09;5056880;28;45347;-70
2022/05/31 04:07:36;;;;;;;;;4.75;3.50;;;;;13.40;68.43;100021.03;5056820;28;45475;-70
2022/05/31 04:10:03;;;;;;;;;4.50;4.00;;;;;13.35;68.31;100014.84;5057481;28;45707;-74
2022/05/31 04:12:30;;;;;;;;;4.50;4.00;;;;;13.29;68.35;100021.81;5057104;28;46025;-74
2022/05/31 04:14:57;;;;;;;;;3.75;3.25;;;;;13.26;67.97;100026.13;5056566;28;45483;-74
2022/05/31 04:17:23;;;;;;;;;4.25;4.25;;;;;13.21;68.24;100025.16;5056727;28;45657;-70
2022/05/31 04:19:48;;;;;;;;;4.00;4.00;;;;;13.19;68.13;100029.53;5056911;28;45403;-70
2022/05/31 04:22:14;;;;;;;;;4.00;4.00;;;;;13.16;68.14;100032.13;5056454;28;46049;-70
2022/05/31 04:24:39;;;;;;;;;4.00;4.00;;;;;13.12;67.76;100025.97;5056582;28;45366;-75
2022/05/31 04:27:06;;;;;;;;;4.00;4.00;;;;;13.03;68.35;100016.25;5055827;28;45291;-70
2022/05/31 04:29:32;;;;;;;;;2.00;2.00;;;;;13.02;68.33;100013.63;5057397;28;45283;-75
2022/05/31 04:31:57;;;;;;;;;3.75;3.75;;;;;13.13;68.25;100036.47;5056227;28;45268;-73
2022/05/31 04:34:23;;;;;;;;;4.00;4.00;;;;;13.10;67.66;100031.19;5056224;28;45413;-75
2022/05/31 04:36:48;;;;;;;;;4.00;4.00;;;;;13.04;67.99;100011.88;5056578;28;45867;-73
2022/05/31 04:39:14;;;;;;;;;3.00;3.00;;;;;13.08;67.15;100013.69;5056733;28;45289;-70
2022/05/31 04:41:39;;;;;;;;;4.75;4.50;;;;;13.05;67.67;100008.38;5056395;28;45657;-70
2022/05/31 04:44:05;;;;;;;;;3.00;2.50;;;;;13.08;67.82;100027.66;5056438;28;45441;-70
2022/05/31 04:46:33;;;;;;;;;7.25;7.00;;;;;13.17;67.83;100033.88;5056789;28;45308;-74
2022/05/31 04:48:59;;;;;;;;;5.25;5.00;;;;;13.18;67.61;100039.13;5056739;28;45489;-74
2022/05/31 04:51:29;;;;;;;;;4.00;3.00;;;;;13.20;67.57;100040.03;5056468;28;45313;-70
2022/05/31 04:53:54;;;;;;;;;3.75;3.00;;;;;13.20;67.38;100040.03;5059694;28;45819;-70
2022/05/31 04:56:21;;;;;;;;;5.00;5.00;;;;;13.20;67.50;100044.41;5059929;28;45834;-73
2022/05/31 04:58:47;;;;;;;;;3.25;3.00;;;;;13.20;67.45;100034.78;5060056;28;45483;-70
2022/05/31 05:01:13;;;;;;;;;5.00;4.75;;;;;13.22;67.61;100033.06;5059605;28;46135;-74
2022/05/31 05:03:41;;;;;;;;;5.00;4.00;;;;;13.24;67.03;100036.59;5059288;28;45439;-71
2022/05/31 05:06:09;;;;;;;;;3.25;3.25;;;;;13.26;67.36;100026.97;5059658;28;45516;-70
2022/05/31 05:08:36;;;;;;;;;4.00;4.00;;;;;13.23;67.03;100019.09;5060193;28;45508;-71
2022/05/31 05:11:04;;;;;;;;;3.25;3.25;;;;;13.25;66.94;99996.38;5059689;28;45389;-74
2022/05/31 05:13:31;;;;;;;;;5.50;5.25;;;;;13.50;66.95;100023.75;5059230;28;45421;-74
2022/05/31 05:15:59;;;;;;;;;5.50;5.50;;;;;13.59;66.64;100023.00;5059233;28;45308;-70
2022/05/31 05:18:25;;;;;;;;;5.75;5.00;;;;;13.66;66.27;100022.16;5059281;28;45531;-70
2022/05/31 05:20:51;;;;;;;;;5.00;5.00;;;;;13.73;65.64;100029.22;5059341;28;45880;-70
2022/05/31 05:23:17;;;;;;;;;5.00;4.00;;;;;13.79;66.27;100038.91;5059221;28;45397;-75
2022/05/31 05:25:54;;;;;;;;;6.00;4.00;;;;;13.91;65.35;100043.38;5059495;28;45386;-73
2022/05/31 05:31:05;;;;;;;;;4.50;4.50;;;;;14.09;64.45;100040.91;5059329;28;45892;-70
2022/05/31 05:33:31;;;;;;;;;5.00;4.50;;;;;14.17;64.07;100037.47;5058829;28;45438;-70
2022/05/31 05:35:57;;;;;;;;;3.75;3.00;;;;;14.25;63.80;100046.28;5058848;28;45358;-74
2022/05/31 05:38:23;;;;;;;;;5.50;4.50;;;;;14.35;63.76;100037.59;5059373;28;45250;-75
2022/05/31 05:40:49;;;;;;;;;4.00;4.00;;;;;14.43;63.09;100041.13;5058846;28;45433;-70
2022/05/31 05:43:14;;;;;;;;;5.25;5.00;;;;;14.51;63.71;100047.31;5059717;28;45432;-74
2022/05/31 05:45:40;;;;;;;;;7.00;7.00;;;;;14.62;63.32;100047.41;5059029;28;45453;-70
2022/05/31 05:48:06;;;;;;;;;5.00;4.25;;;;;14.56;63.12;100023.69;5059393;28;45390;-69
2022/05/31 05:50:34;;;;;;;;;3.50;3.50;;;;;14.81;62.73;100048.38;5058656;28;45949;-70
2022/05/31 05:53:06;;;;;;;;;4.00;3.50;;;;;14.91;62.60;100055.44;5058523;28;45334;-73
2022/05/31 05:55:34;;;;;;;;;4.00;4.00;;;;;15.02;62.34;100054.59;5058471;28;45439;-73
2022/05/31 05:58:00;;;;;;;;;4.75;4.00;;;;;15.08;61.97;100046.72;5058674;28;45421;-69
2022/05/31 06:00:25;;;;;;;;;4.00;4.00;;;;;15.39;61.58;100047.69;5058393;28;46002;-70
2022/05/31 06:03:13;;;;;;;;;4.50;4.00;;;;;18.19;56.00;100020.41;5058096;28;45494;-70
2022/05/31 06:05:40;;;;;;;;;4.67;4.67;;;;;21.50;47.61;100046.97;5058991;28;45439;-70
2022/05/31 06:08:10;;;;;;;;;6.00;5.67;;;;;24.12;41.18;100042.34;5058994;28;45648;-70
2022/05/31 06:10:45;;;;;;;;;5.00;4.00;;;;;26.12;37.91;100042.84;5058431;28;46069;-74
2022/05/31 06:13:21;;;;;;;;;3.00;3.00;;;;;27.90;34.36;100042.78;5057401;28;45307;-70
2022/05/31 06:15:50;;;;;;;;;4.00;4.00;;;;;29.31;31.62;100053.31;5056681;28;45509;-71
2022/05/31 06:18:40;;;;;;;;;3.00;3.00;;;;;30.47;28.56;100047.53;5054294;28;45414;-72
2022/05/31 06:21:08;;;;;;;;;4.00;4.00;;;;;31.35;27.73;100054.72;5055380;28;45347;-71
2022/05/31 06:23:36;;;;;;;;;3.33;3.33;;;;;32.39;26.25;100060.44;5056459;28;45772;-74
2022/05/31 06:26:02;;;;;;;;;3.00;3.00;;;;;33.38;25.93;100068.78;5056674;28;45529;-71
2022/05/31 06:28:28;;;;;;;;;4.33;3.33;;;;;34.29;23.75;100064.78;5056571;28;45482;-73
2022/05/31 06:30:53;;;;;;;;;6.33;3.67;;;;;34.84;22.68;100063.22;5055428;28;45616;-73
2022/05/31 06:33:19;;;;;;;;;2.67;2.67;;;;;35.53;23.37;100072.22;5054482;28;45988;-72
2022/05/31 06:35:45;;;;;;;;;4.33;3.67;;;;;36.09;21.26;100058.47;5055828;28;45620;-72
2022/05/31 06:38:10;;;;;;;;;3.00;3.00;;;;;36.42;20.71;100064.78;5056559;28;45576;-71
2022/05/31 06:40:39;;;;;;;;;2.67;2.00;;;;;37.08;19.73;100067.19;5056456;28;46070;-71
2022/05/31 06:43:05;;;;;;;;;4.67;4.67;;;;;37.63;19.30;100064.13;5056494;28;45491;-72
2022/05/31 06:45:30;;;;;;;;;4.67;3.00;;;;;38.07;18.23;100061.91;5056104;28;45410;-73
2022/05/31 06:47:56;;;;;;;;;7.33;6.33;;;;;38.61;18.14;100072.38;5055033;28;45355;-74
2022/05/31 06:50:21;;;;;;;;;4.00;4.00;;;;;39.21;17.82;100080.25;5056182;28;45382;-74
2022/05/31 06:58:16;;;;;;;;;8.33;5.00;;;;;40.47;17.01;100079.44;5053703;28;45464;-75
2022/05/31 07:00:41;;;;;;;;;8.33;5.33;;;;;40.80;16.19;100079.69;5055681;28;46054;-74
2022/05/31 07:03:07;;;;;;;;;7.67;5.00;;;;;41.15;15.89;100086.91;5056155;28;45472;-74
2022/05/31 07:05:32;;;;;;;;;6.00;4.00;;;;;41.59;15.87;100077.69;5057062;28;45496;-76
2022/05/31 07:07:58;;;;;;;;;6.67;5.00;;;;;41.90;14.81;100071.59;5057876;28;45318;-76
2022/05/31 07:10:24;;;;;;;;;5.67;5.00;;;;;42.53;13.90;100085.75;5057610;28;45588;-74
2022/05/31 07:12:50;;;;;;;;;5.00;4.00;;;;;42.78;14.78;100090.19;5057278;28;45494;-77
2022/05/31 07:15:16;;;;;;;;;8.00;5.67;;;;;43.11;14.23;100085.47;5056537;28;45318;-72
2022/05/31 07:17:41;;;;;;;;;7.67;5.00;;;;;43.27;14.38;100106.56;5057785;28;45576;-73
2022/05/31 07:20:08;;;;;;;;;7.33;5.00;;;;;43.38;13.92;100090.75;5054563;28;45356;-74
2022/05/31 07:22:35;;;;;;;;;3.67;3.67;;;;;44.01;13.98;100099.84;5055767;28;45315;-74
2022/05/31 07:25:01;;;;;;;;;5.67;2.33;;;;;44.52;13.50;100113.94;5053314;28;45406;-73
2022/05/31 07:27:27;;;;;;;;;4.33;3.00;;;;;44.76;13.01;100114.75;5053522;28;45286;-74
2022/05/31 07:29:53;;;;;;;;;2.00;2.00;;;;;44.68;12.79;100088.13;5052666;28;45497;-73
2022/05/31 07:32:18;;;;;;;;;6.00;3.67;;;;;45.13;13.11;100118.50;5054096;28;45453;-74
2022/05/31 07:34:44;;;;;;;;;4.00;3.33;;;;;45.45;12.36;100122.81;5054680;28;45590;-74
2022/05/31 07:37:10;;;;;;;;;4.33;3.00;;;;;45.78;12.37;100122.38;5054925;28;45294;-75
2022/05/31 07:39:36;;;;;;;;;4.00;3.00;;;;;45.90;12.35;100122.72;5054386;28;45509;-74
2022/05/31 07:42:02;;;;;;;;;3.67;3.00;;;;;46.09;12.18;100130.41;5054307;28;45736;-72
2022/05/31 07:44:27;;;;;;;;;4.67;3.67;;;;;46.40;11.32;100126.44;5054092;28;45501;-75
2022/05/31 07:46:55;;;;;;;;;5.67;4.67;;;;;46.61;12.05;100120.06;5054268;28;45472;-72
2022/05/31 07:49:22;;;;;;;;;3.67;3.00;;;;;46.93;11.68;100120.53;5051613;28;46216;-71
2022/05/31 07:51:47;;;;;;;;;3.00;2.67;;;;;47.08;11.32;100109.34;5054215;28;45580;-71
2022/05/31 07:54:13;;;;;;;;;2.33;2.33;;;;;47.06;11.84;100119.75;5054197;28;45517;-75
2022/05/31 07:56:39;;;;;;;;;1.33;1.33;;;;;47.26;11.19;100115.25;5054478;28;45526;-70
2022/05/31 07:59:05;;;;;;;;;2.67;1.67;;;;;47.46;11.36;100104.28;5054396;28;45539;-75
2022/05/31 08:01:31;;;;;;;;;1.67;1.67;;;;;47.47;11.38;100105.13;5054440;28;45359;-76
2022/05/31 08:03:56;;;;;;;;;2.00;2.00;;;;;47.75;10.88;100091.19;5055105;28;45486;-74
2022/05/31 08:06:27;;;;;;;;;2.00;1.67;;;;;47.98;11.33;100093.63;5056102;28;45569;-75
2022/05/31 08:08:53;;;;;;;;;2.00;2.00;;;;;48.04;10.87;100089.16;5054685;28;45557;-77
2022/05/31 08:11:24;;;;;;;;;2.33;2.33;;;;;48.48;10.71;100105.19;5055397;28;45524;-73
2022/05/31 08:13:50;;;;;;;;;5.00;2.00;;;;;47.94;10.50;100104.25;5055403;28;45529;-75
2022/05/31 08:16:19;;;;;;;;;3.00;2.00;;;;;48.03;11.23;100095.75;5059209;28;45423;-77
2022/05/31 08:18:45;;;;;;;;;1.67;1.67;;;;;48.19;11.14;100095.34;5053741;28;45959;-78
2022/05/31 08:21:14;;;;;;;;;1.67;1.67;;;;;48.67;10.74;100102.63;5051112;28;45775;-81
2022/05/31 08:23:40;;;;;;;;;1.33;1.33;;;;;49.02;10.27;100103.25;5055453;28;45364;-82
2022/05/31 08:26:06;;;;;;;;;1.33;1.00;;;;;49.14;10.25;100101.50;5055646;28;45624;-82
2022/05/31 08:28:33;;;;;;;;;2.00;2.00;;;;;49.17;10.67;100103.84;5058029;28;45564;-82
2022/05/31 08:31:01;;;;;;;;;0.67;0.67;;;;;49.40;10.16;100113.59;5058305;28;45681;-82
2022/05/31 08:33:27;;;;;;;;;1.00;1.00;;;;;49.21;10.17;100109.81;5058149;28;45344;-82
2022/05/31 08:36:14;;;;;;;;;3.00;2.00;;;;;49.31;10.72;100092.72;5059371;28;45602;-83
2022/05/31 08:38:40;;;;;;;;;2.00;2.00;;;;;49.66;10.35;100106.22;5060246;28;45461;-84
2022/05/31 08:41:22;;;;;;;;;1.67;1.67;;;;;49.37;10.02;100108.50;5059692;28;45301;-80
2022/05/31 08:43:47;;;;;;;;;2.00;2.00;;;;;49.43;9.64;100110.41;5072052;28;45498;-82
2022/05/31 08:46:34;;;;;;;;;1.00;1.00;;;;;49.54;9.85;100114.38;5058312;28;45402;-79
2022/05/31 08:49:05;;;;;;;;;1.00;1.00;;;;;49.37;9.82;100119.59;5056926;28;45404;-79
2022/05/31 08:51:54;;;;;;;;;2.00;1.67;;;;;49.50;10.61;100118.69;5057665;28;45458;-79
2022/05/31 08:57:15;;;;;;;;;2.00;2.00;;;;;49.39;10.30;100111.03;5059378;28;45469;-73
2022/05/31 08:59:53;;;;;;;;;0.67;0.67;;;;;49.12;9.97;100109.19;5059060;28;45600;-73
2022/05/31 09:02:29;;;;;;;;;2.00;2.00;;;;;48.82;10.08;100103.25;5059220;28;45370;-76
2022/05/31 09:05:03;;;;;;;;;2.00;1.67;;;;;48.93;11.00;100107.31;5059336;28;45528;-79
2022/05/31 09:07:44;;;;;;;;;2.67;2.67;;;;;48.73;10.36;100090.69;5059608;28;45362;-79
2022/05/31 09:10:17;;;;;;;;;3.00;2.33;;;;;48.75;10.10;100094.09;5059247;28;46353;-80
2022/05/31 09:13:04;;;;;;;;;2.67;1.33;;;;;49.09;10.90;100090.22;5059212;28;45473;-83
2022/05/31 09:15:54;;;;;;;;;1.00;1.00;;;;;49.41;10.58;100087.56;5057949;28;45428;-80
2022/05/31 09:18:42;;;;;;;;;1.67;1.67;;;;;49.42;10.05;100083.72;5056420;28;45425;-79
2022/05/31 09:21:37;;;;;;;;;2.67;2.67;;;;;49.73;9.80;100091.25;5073216;28;45443;-84
2022/05/31 09:24:04;;;;;;;;;0.67;0.67;;;;;49.89;9.59;100089.03;5056855;28;45382;-83
2022/05/31 09:26:51;;;;;;;;;2.00;1.00;;;;;49.89;9.79;100086.25;5048552;28;45437;-72
2022/05/31 09:29:48;;;;;;;;;1.33;1.33;;;;;50.10;8.95;100094.25;5054396;28;45492;-75
2022/05/31 09:32:46;;;;;;;;;2.33;1.33;;;;;49.89;9.08;100094.59;5054793;28;45438;-75
2022/05/31 09:35:51;;;;;;;;;2.33;2.00;;;;;49.93;9.19;100096.69;5056518;28;45383;-79
2022/05/31 09:38:35;;;;;;;;;2.00;1.67;;;;;50.44;8.74;100089.31;5056379;28;45540;-73
2022/05/31 09:41:15;;;;;;;;;2.00;1.67;;;;;50.51;8.87;100092.88;5055958;28;45488;-75
2022/05/31 09:43:57;;;;;;;;;1.00;1.00;;;;;49.02;9.95;100080.22;5056165;28;45474;-74
2022/05/31 09:46:47;;;;;;;;;2.00;1.67;;;;;48.02;10.40;100077.44;5055515;28;45546;-80
2022/05/31 09:49:45;;;;;;;;;2.00;2.00;;;;;46.67;11.00;100065.91;5034822;28;45467;-74
2022/05/31 09:52:15;;;;;;;;;2.00;2.00;;;;;47.46;11.16;100073.00;5037596;28;45460;-83
2022/05/31 09:58:14;;;;;;;;;3.67;2.33;;;;;44.00;13.19;100065.97;5055925;28;45741;-82
2022/05/31 10:00:58;;;;;;;;;9.00;9.00;;;;;44.75;13.15;100067.06;5052756;28;45522;-80
2022/05/31 10:03:40;;;;;;;;;3.00;3.00;;;;;45.51;12.35;100074.31;5054506;28;45510;-78
2022/05/31 10:06:14;;;;;;;;;1.00;1.00;;;;;44.83;12.11;100016.53;5054394;28;45484;-78
2022/05/31 10:08:40;;;;;;;;;2.33;2.33;;;;;45.33;12.35;100066.44;5055360;28;45513;-78
2022/05/31 10:11:13;;;;;;;;;2.33;2.00;;;;;44.84;12.22;100063.16;5056937;28;45333;-79
2022/05/31 10:13:53;;;;;;;;;2.33;2.00;;;;;44.68;12.49;100075.22;5057233;28;45529;-79
2022/05/31 10:16:32;;;;;;;;;2.00;2.00;;;;;44.59;13.14;100067.22;5055940;28;45437;-82
2022/05/31 10:19:04;;;;;;;;;3.00;3.00;;;;;44.80;13.15;100072.00;5056726;28;45493;-80
2022/05/31 10:21:30;;;;;;;;;2.00;2.00;;;;;45.02;12.93;100075.75;5055577;28;45517;-78
2022/05/31 10:24:05;;;;;;;;;2.67;2.67;;;;;45.31;12.01;100071.31;5055800;28;45419;-78
2022/05/31 10:26:37;;;;;;;;;2.33;2.33;;;;;45.33;12.11;100066.44;5056732;28;45455;-79
2022/05/31 10:29:33;;;;;;;;;3.33;3.33;;;;;45.69;12.34;100068.38;5054939;28;45592;-74
2022/05/31 10:31:59;;;;;;;;;2.67;2.67;;;;;45.10;12.15;100061.00;5037506;28;45701;-77
2022/05/31 10:34:31;;;;;;;;;7.00;7.00;;;;;44.97;12.24;100061.66;5056047;28;45589;-81
2022/05/31 10:36:58;;;;;;;;;2.33;2.00;;;;;45.12;12.56;100065.28;5056268;28;46184;-78
2022/05/31 10:39:30;;;;;;;;;2.67;2.00;;;;;45.02;12.08;100064.72;5056622;28;45583;-80
2022/05/31 10:41:59;;;;;;;;;1.67;1.67;;;;;45.28;12.10;100066.16;5056869;28;45577;-79
2022/05/31 10:44:35;;;;;;;;;2.67;2.00;;;;;45.29;12.27;100059.56;5056564;28;45486;-82
2022/05/31 10:47:15;;;;;;;;;3.00;3.00;;;;;45.10;12.32;100056.34;5056309;28;45479;-78
2022/05/31 10:49:43;;;;;;;;;3.00;2.00;;;;;44.83;12.61;100061.47;5054113;28;45581;-82
2022/05/31 10:52:35;;;;;;;;;2.00;2.00;;;;;44.52;12.64;100061.63;5056775;28;45514;-80
2022/05/31 10:55:19;;;;;;;;;1.67;1.67;;;;;44.64;13.34;100059.25;5056090;28;45454;-81
2022/05/31 10:57:59;;;;;;;;;2.33;2.33;;;;;44.18;12.58;100032.66;5035799;28;45456;-80
2022/05/31 11:00:39;;;;;;;;;2.33;2.33;;;;;43.93;13.14;100044.88;5036391;28;45725;-81
2022/05/31 11:03:30;;;;;;;;;3.67;3.33;;;;;43.14;13.10;100042.16;5038147;28;45540;-76
2022/05/31 11:06:17;;;;;;;;;2.67;2.67;;;;;42.71;14.00;100039.72;5048113;28;45808;-73
2022/05/31 11:12:13;;;;;;;;;3.00;3.00;;;;;39.36;16.56;100044.06;5054240;28;45440;-81
2022/05/31 11:14:58;;;;;;;;;2.67;2.67;;;;;37.76;17.81;100045.66;5054736;28;45605;-79
2022/05/31 11:17:42;;;;;;;;;4.33;3.33;;;;;36.81;18.76;100044.16;5051943;28;45760;-79
2022/05/31 11:20:17;;;;;;;;;5.67;3.67;;;;;35.72;19.77;100039.00;5056530;28;45387;-81
2022/05/31 11:23:11;;;;;;;;;4.67;4.67;;;;;34.80;20.09;100037.31;5057139;28;45473;-81
2022/05/31 11:25:59;;;;;;;;;3.00;2.67;;;;;34.06;22.36;100042.13;5057478;28;45480;-80
2022/05/31 11:28:47;;;;;;;;;4.67;3.67;;;;;33.29;21.86;100037.88;5057461;28;45453;-80
2022/05/31 11:31:26;;;;;;;;;2.67;2.67;;;;;32.90;23.15;100042.44;5057399;28;46294;-80
2022/05/31 11:34:19;;;;;;;;;2.33;2.33;;;;;32.78;23.48;100026.22;5057026;28;45521;-80
2022/05/31 11:37:08;;;;;;;;;3.67;3.67;;;;;32.74;23.78;100038.25;5057605;28;45375;-80
2022/05/31 11:40:04;;;;;;;;;3.00;3.00;;;;;32.34;23.79;100033.75;5057288;28;45237;-79
2022/05/31 11:42:59;;;;;;;;;4.00;3.67;;;;;31.85;24.77;100028.94;5056850;28;46003;-79
2022/05/31 11:45:25;;;;;;;;;3.67;3.67;;;;;31.66;24.99;100043.66;5055441;28;45394;-78
2022/05/31 11:48:02;;;;;;;;;5.00;3.67;;;;;31.88;24.70;100053.06;5057246;28;45420;-80
2022/05/31 11:50:51;;;;;;;;;4.00;4.00;;;;;31.60;25.22;100033.28;5057051;28;45498;-80
2022/05/31 11:53:35;;;;;;;;;4.33;4.33;;;;;31.61;25.70;100050.34;5056787;28;45205;-80
2022/05/31 11:56:19;;;;;;;;;5.00;5.00;;;;;31.69;26.05;100042.59;5057109;28;45474;-81
2022/05/31 11:58:47;;;;;;;;;3.67;2.33;;;;;31.70;25.37;100038.94;5057098;28;45419;-80
2022/05/31 12:01:51;;;;;;;;;4.67;3.67;;;;;31.60;25.78;100041.38;5058725;28;45401;-79
2022/05/31 12:04:35;;;;;;;;;3.67;3.67;;;;;31.08;25.49;100045.59;5059921;28;45552;-72
2022/05/31 12:07:18;;;;;;;;;5.00;5.00;;;;;30.54;26.66;100042.66;5060537;28;45432;-80
2022/05/31 12:09:56;;;;;;;;;5.33;5.33;;;;;30.56;27.11;100032.66;5060746;28;45267;-79